sensor_id;sensor_type;location;lat;lon;timestamp;temperature;humidity
7384;DHT22;3733;47.994;8.820;2023-02-20T00:00:42;7.20;74.10
7384;DHT22;3733;47.994;8.820;2023-02-20T00:03:07;7.20;74.30
7384;DHT22;3733;47.994;8.820;2023-02-20T00:05:33;7.10;74.80
7384;DHT22;3733;47.994;8.820;2023-02-20T00:07:59;7.10;74.50
7384;DHT22;3733;47.994;8.820;2023-02-20T00:10:25;7.10;74.70
7384;DHT22;3733;47.994;8.820;2023-02-20T00:12:51;7.10;74.90
7384;DHT22;3733;47.994;8.820;2023-02-20T00:15:18;7.10;75.00
7384;DHT22;3733;47.994;8.820;2023-02-20T00:17:45;7.10;75.20
7384;DHT22;3733;47.994;8.820;2023-02-20T00:20:16;7.10;75.30
7384;DHT22;3733;47.994;8.820;2023-02-20T00:22:42;7.10;75.40
7384;DHT22;3733;47.994;8.820;2023-02-20T00:25:07;7.10;75.50
7384;DHT22;3733;47.994;8.820;2023-02-20T00:27:33;7.10;75.70
7384;DHT22;3733;47.994;8.820;2023-02-20T00:29:59;7.10;75.70
7384;DHT22;3733;47.994;8.820;2023-02-20T00:32:24;7.10;75.70
7384;DHT22;3733;47.994;8.820;2023-02-20T00:34:50;7.10;75.60
7384;DHT22;3733;47.994;8.820;2023-02-20T00:37:16;7.10;75.80
7384;DHT22;3733;47.994;8.820;2023-02-20T00:39:41;7.10;75.90
7384;DHT22;3733;47.994;8.820;2023-02-20T00:42:07;7.10;76.10
7384;DHT22;3733;47.994;8.820;2023-02-20T00:44:33;7.10;76.40
7384;DHT22;3733;47.994;8.820;2023-02-20T00:46:58;7.10;76.60
7384;DHT22;3733;47.994;8.820;2023-02-20T00:49:24;7.00;76.70
7384;DHT22;3733;47.994;8.820;2023-02-20T00:51:49;7.00;76.90
7384;DHT22;3733;47.994;8.820;2023-02-20T00:54:15;7.00;77.60
7384;DHT22;3733;47.994;8.820;2023-02-20T00:56:41;6.90;78.40
7384;DHT22;3733;47.994;8.820;2023-02-20T00:59:07;6.90;78.80
7384;DHT22;3733;47.994;8.820;2023-02-20T01:01:32;6.90;79.10
7384;DHT22;3733;47.994;8.820;2023-02-20T01:03:58;6.90;79.10
7384;DHT22;3733;47.994;8.820;2023-02-20T01:06:24;6.90;79.20
7384;DHT22;3733;47.994;8.820;2023-02-20T01:08:50;6.90;79.00
7384;DHT22;3733;47.994;8.820;2023-02-20T01:11:16;6.90;78.80
7384;DHT22;3733;47.994;8.820;2023-02-20T01:13:42;6.90;78.60
7384;DHT22;3733;47.994;8.820;2023-02-20T01:16:07;6.90;78.60
7384;DHT22;3733;47.994;8.820;2023-02-20T01:18:33;6.90;79.00
7384;DHT22;3733;47.994;8.820;2023-02-20T01:20:59;6.80;78.70
7384;DHT22;3733;47.994;8.820;2023-02-20T01:23:25;6.80;79.10
7384;DHT22;3733;47.994;8.820;2023-02-20T01:25:50;6.80;79.50
7384;DHT22;3733;47.994;8.820;2023-02-20T01:28:16;6.80;79.90
7384;DHT22;3733;47.994;8.820;2023-02-20T01:30:41;6.80;80.10
7384;DHT22;3733;47.994;8.820;2023-02-20T01:33:07;6.80;80.60
7384;DHT22;3733;47.994;8.820;2023-02-20T01:35:33;6.80;80.90
7384;DHT22;3733;47.994;8.820;2023-02-20T01:37:59;6.80;81.10
7384;DHT22;3733;47.994;8.820;2023-02-20T01:40:26;6.80;80.90
7384;DHT22;3733;47.994;8.820;2023-02-20T01:42:51;6.80;80.50
7384;DHT22;3733;47.994;8.820;2023-02-20T01:47:50;6.80;80.00
7384;DHT22;3733;47.994;8.820;2023-02-20T01:50:19;6.80;79.80
7384;DHT22;3733;47.994;8.820;2023-02-20T01:52:49;6.80;79.70
7384;DHT22;3733;47.994;8.820;2023-02-20T01:55:20;6.70;79.70
7384;DHT22;3733;47.994;8.820;2023-02-20T01:58:00;6.70;80.10
7384;DHT22;3733;47.994;8.820;2023-02-20T02:00:27;6.70;80.30
7384;DHT22;3733;47.994;8.820;2023-02-20T02:03:10;6.70;80.40
7384;DHT22;3733;47.994;8.820;2023-02-20T02:05:38;6.70;80.60
7384;DHT22;3733;47.994;8.820;2023-02-20T02:08:06;6.70;80.70
7384;DHT22;3733;47.994;8.820;2023-02-20T02:11:03;6.70;81.00
7384;DHT22;3733;47.994;8.820;2023-02-20T02:13:29;6.70;81.20
7384;DHT22;3733;47.994;8.820;2023-02-20T02:19:04;6.60;81.30
7384;DHT22;3733;47.994;8.820;2023-02-20T02:33:30;6.60;80.60
7384;DHT22;3733;47.994;8.820;2023-02-20T02:38:49;6.60;81.20
7384;DHT22;3733;47.994;8.820;2023-02-20T02:41:27;6.60;81.30
7384;DHT22;3733;47.994;8.820;2023-02-20T02:44:00;6.60;80.90
7384;DHT22;3733;47.994;8.820;2023-02-20T02:49:19;6.60;80.10
7384;DHT22;3733;47.994;8.820;2023-02-20T02:51:47;6.60;79.90
7384;DHT22;3733;47.994;8.820;2023-02-20T02:56:43;6.60;79.90
7384;DHT22;3733;47.994;8.820;2023-02-20T02:59:13;6.60;80.30
7384;DHT22;3733;47.994;8.820;2023-02-20T03:01:43;6.50;80.20
7384;DHT22;3733;47.994;8.820;2023-02-20T03:04:12;6.50;80.50
7384;DHT22;3733;47.994;8.820;2023-02-20T03:06:41;6.50;80.70
7384;DHT22;3733;47.994;8.820;2023-02-20T03:09:15;6.50;80.90
7384;DHT22;3733;47.994;8.820;2023-02-20T03:11:42;6.40;81.10
7384;DHT22;3733;47.994;8.820;2023-02-20T03:14:16;6.40;81.30
7384;DHT22;3733;47.994;8.820;2023-02-20T03:17:12;6.30;81.40
7384;DHT22;3733;47.994;8.820;2023-02-20T03:19:45;6.30;82.20
7384;DHT22;3733;47.994;8.820;2023-02-20T03:22:26;6.20;82.60
7384;DHT22;3733;47.994;8.820;2023-02-20T03:24:59;6.20;83.30
7384;DHT22;3733;47.994;8.820;2023-02-20T03:27:35;6.20;83.80
7384;DHT22;3733;47.994;8.820;2023-02-20T03:30:40;6.10;84.20
7384;DHT22;3733;47.994;8.820;2023-02-20T03:35:54;6.00;84.60
7384;DHT22;3733;47.994;8.820;2023-02-20T03:38:41;6.00;85.50
7384;DHT22;3733;47.994;8.820;2023-02-20T03:41:29;5.90;86.20
7384;DHT22;3733;47.994;8.820;2023-02-20T03:44:17;5.90;87.20
7384;DHT22;3733;47.994;8.820;2023-02-20T03:46:45;5.80;87.80
7384;DHT22;3733;47.994;8.820;2023-02-20T03:49:16;5.80;88.70
7384;DHT22;3733;47.994;8.820;2023-02-20T03:51:43;5.70;89.30
7384;DHT22;3733;47.994;8.820;2023-02-20T03:54:09;5.70;89.50
7384;DHT22;3733;47.994;8.820;2023-02-20T03:56:43;5.70;89.30
7384;DHT22;3733;47.994;8.820;2023-02-20T03:59:22;5.60;90.00
7384;DHT22;3733;47.994;8.820;2023-02-20T04:01:53;5.60;90.40
7384;DHT22;3733;47.994;8.820;2023-02-20T04:04:25;5.60;90.50
7384;DHT22;3733;47.994;8.820;2023-02-20T04:06:53;5.60;90.50
7384;DHT22;3733;47.994;8.820;2023-02-20T04:09:26;5.50;90.30
7384;DHT22;3733;47.994;8.820;2023-02-20T04:11:59;5.50;90.50
7384;DHT22;3733;47.994;8.820;2023-02-20T04:14:26;5.40;91.00
7384;DHT22;3733;47.994;8.820;2023-02-20T04:16:57;5.40;91.40
7384;DHT22;3733;47.994;8.820;2023-02-20T04:19:24;5.40;91.80
7384;DHT22;3733;47.994;8.820;2023-02-20T04:21:53;5.30;92.30
7384;DHT22;3733;47.994;8.820;2023-02-20T04:26:53;5.30;92.20
7384;DHT22;3733;47.994;8.820;2023-02-20T04:29:19;5.20;92.30
7384;DHT22;3733;47.994;8.820;2023-02-20T04:31:45;5.20;92.60
7384;DHT22;3733;47.994;8.820;2023-02-20T04:34:10;5.10;93.20
7384;DHT22;3733;47.994;8.820;2023-02-20T04:36:36;5.10;93.80
7384;DHT22;3733;47.994;8.820;2023-02-20T04:39:02;5.00;94.40
7384;DHT22;3733;47.994;8.820;2023-02-20T04:41:27;5.10;94.80
7384;DHT22;3733;47.994;8.820;2023-02-20T04:43:53;5.00;94.40
7384;DHT22;3733;47.994;8.820;2023-02-20T04:46:39;5.00;94.00
7384;DHT22;3733;47.994;8.820;2023-02-20T04:49:04;5.00;93.70
7384;DHT22;3733;47.994;8.820;2023-02-20T04:51:30;4.90;94.30
7384;DHT22;3733;47.994;8.820;2023-02-20T04:53:56;4.90;94.70
7384;DHT22;3733;47.994;8.820;2023-02-20T04:56:21;4.90;94.70
7384;DHT22;3733;47.994;8.820;2023-02-20T04:58:47;4.80;94.90
7384;DHT22;3733;47.994;8.820;2023-02-20T05:01:14;4.80;95.60
7384;DHT22;3733;47.994;8.820;2023-02-20T05:03:40;4.70;95.80
7384;DHT22;3733;47.994;8.820;2023-02-20T05:06:06;4.70;95.50
7384;DHT22;3733;47.994;8.820;2023-02-20T05:08:32;4.70;95.80
7384;DHT22;3733;47.994;8.820;2023-02-20T05:10:57;4.60;96.00
7384;DHT22;3733;47.994;8.820;2023-02-20T05:13:23;4.60;95.60
7384;DHT22;3733;47.994;8.820;2023-02-20T05:15:48;4.50;95.40
7384;DHT22;3733;47.994;8.820;2023-02-20T05:18:29;4.50;95.70
7384;DHT22;3733;47.994;8.820;2023-02-20T05:20:55;4.40;96.00
7384;DHT22;3733;47.994;8.820;2023-02-20T05:23:39;4.40;96.90
7384;DHT22;3733;47.994;8.820;2023-02-20T05:26:12;4.30;97.30
7384;DHT22;3733;47.994;8.820;2023-02-20T05:28:41;4.20;97.10
7384;DHT22;3733;47.994;8.820;2023-02-20T05:31:06;4.10;97.90
7384;DHT22;3733;47.994;8.820;2023-02-20T05:33:32;4.10;97.90
7384;DHT22;3733;47.994;8.820;2023-02-20T05:35:58;4.00;98.00
7384;DHT22;3733;47.994;8.820;2023-02-20T05:38:24;3.90;98.10
7384;DHT22;3733;47.994;8.820;2023-02-20T05:40:49;3.90;99.90
7384;DHT22;3733;47.994;8.820;2023-02-20T05:43:16;4.00;99.90
7384;DHT22;3733;47.994;8.820;2023-02-20T05:45:41;4.00;99.90
7384;DHT22;3733;47.994;8.820;2023-02-20T05:48:07;4.00;99.60
7384;DHT22;3733;47.994;8.820;2023-02-20T05:50:32;3.90;99.20
7384;DHT22;3733;47.994;8.820;2023-02-20T05:52:58;3.90;99.00
7384;DHT22;3733;47.994;8.820;2023-02-20T05:55:24;3.80;98.90
7384;DHT22;3733;47.994;8.820;2023-02-20T05:57:49;3.80;99.50
7384;DHT22;3733;47.994;8.820;2023-02-20T06:00:15;3.70;99.90
7384;DHT22;3733;47.994;8.820;2023-02-20T06:02:41;3.60;99.70
7384;DHT22;3733;47.994;8.820;2023-02-20T06:05:06;3.60;99.90
7384;DHT22;3733;47.994;8.820;2023-02-20T06:07:33;3.50;99.90
7384;DHT22;3733;47.994;8.820;2023-02-20T06:09:59;3.50;99.90
7384;DHT22;3733;47.994;8.820;2023-02-20T06:12:25;3.50;99.90
7384;DHT22;3733;47.994;8.820;2023-02-20T06:14:50;3.50;99.90
7384;DHT22;3733;47.994;8.820;2023-02-20T06:17:16;3.50;99.90
7384;DHT22;3733;47.994;8.820;2023-02-20T06:19:41;3.50;99.90
7384;DHT22;3733;47.994;8.820;2023-02-20T06:22:07;3.50;99.90
7384;DHT22;3733;47.994;8.820;2023-02-20T06:24:33;3.40;99.90
7384;DHT22;3733;47.994;8.820;2023-02-20T06:26:59;3.40;99.90
7384;DHT22;3733;47.994;8.820;2023-02-20T06:29:25;3.40;99.90
7384;DHT22;3733;47.994;8.820;2023-02-20T06:31:51;3.30;99.90
7384;DHT22;3733;47.994;8.820;2023-02-20T06:34:17;3.30;99.90
7384;DHT22;3733;47.994;8.820;2023-02-20T06:36:43;3.30;99.90
7384;DHT22;3733;47.994;8.820;2023-02-20T06:39:12;3.20;99.90
7384;DHT22;3733;47.994;8.820;2023-02-20T06:41:37;3.10;99.90
7384;DHT22;3733;47.994;8.820;2023-02-20T06:44:03;3.10;99.90
7384;DHT22;3733;47.994;8.820;2023-02-20T06:46:30;3.10;99.90
7384;DHT22;3733;47.994;8.820;2023-02-20T06:48:57;3.10;99.90
7384;DHT22;3733;47.994;8.820;2023-02-20T06:51:32;3.10;99.90
7384;DHT22;3733;47.994;8.820;2023-02-20T06:53:58;3.10;99.90
7384;DHT22;3733;47.994;8.820;2023-02-20T06:56:27;3.10;99.90
7384;DHT22;3733;47.994;8.820;2023-02-20T06:58:53;3.10;99.90
7384;DHT22;3733;47.994;8.820;2023-02-20T07:01:21;3.10;99.90
7384;DHT22;3733;47.994;8.820;2023-02-20T07:03:48;3.10;99.90
7384;DHT22;3733;47.994;8.820;2023-02-20T07:06:15;3.10;99.90
7384;DHT22;3733;47.994;8.820;2023-02-20T07:08:41;3.10;99.90
7384;DHT22;3733;47.994;8.820;2023-02-20T07:11:07;3.10;99.90
7384;DHT22;3733;47.994;8.820;2023-02-20T07:13:32;3.10;99.90
7384;DHT22;3733;47.994;8.820;2023-02-20T07:15:58;3.10;99.90
7384;DHT22;3733;47.994;8.820;2023-02-20T07:18:24;3.10;99.90
7384;DHT22;3733;47.994;8.820;2023-02-20T07:20:52;3.10;99.90
7384;DHT22;3733;47.994;8.820;2023-02-20T07:23:18;3.20;99.90
7384;DHT22;3733;47.994;8.820;2023-02-20T07:25:44;3.20;99.90
7384;DHT22;3733;47.994;8.820;2023-02-20T07:28:09;3.30;99.90
7384;DHT22;3733;47.994;8.820;2023-02-20T07:30:36;3.30;99.90
7384;DHT22;3733;47.994;8.820;2023-02-20T07:33:01;3.40;99.90
7384;DHT22;3733;47.994;8.820;2023-02-20T07:35:27;3.50;99.90
7384;DHT22;3733;47.994;8.820;2023-02-20T07:37:53;3.50;99.90
7384;DHT22;3733;47.994;8.820;2023-02-20T07:40:18;3.60;99.90
7384;DHT22;3733;47.994;8.820;2023-02-20T07:42:44;3.60;99.90
7384;DHT22;3733;47.994;8.820;2023-02-20T07:45:10;3.60;99.90
7384;DHT22;3733;47.994;8.820;2023-02-20T07:47:36;3.70;99.90
7384;DHT22;3733;47.994;8.820;2023-02-20T07:50:02;3.70;99.90
7384;DHT22;3733;47.994;8.820;2023-02-20T07:52:28;3.70;99.90
7384;DHT22;3733;47.994;8.820;2023-02-20T07:54:53;3.70;99.90
7384;DHT22;3733;47.994;8.820;2023-02-20T07:57:19;3.80;99.90
7384;DHT22;3733;47.994;8.820;2023-02-20T07:59:45;3.80;99.90
7384;DHT22;3733;47.994;8.820;2023-02-20T08:02:10;3.80;99.90
7384;DHT22;3733;47.994;8.820;2023-02-20T08:04:36;3.90;99.90
7384;DHT22;3733;47.994;8.820;2023-02-20T08:07:02;3.90;99.90
7384;DHT22;3733;47.994;8.820;2023-02-20T08:09:27;4.00;99.90
7384;DHT22;3733;47.994;8.820;2023-02-20T08:11:53;4.10;99.90
7384;DHT22;3733;47.994;8.820;2023-02-20T08:14:18;4.20;99.90
7384;DHT22;3733;47.994;8.820;2023-02-20T08:16:44;4.20;99.90
7384;DHT22;3733;47.994;8.820;2023-02-20T08:19:10;4.30;99.90
7384;DHT22;3733;47.994;8.820;2023-02-20T08:21:35;4.40;99.90
7384;DHT22;3733;47.994;8.820;2023-02-20T08:24:01;4.50;99.90
7384;DHT22;3733;47.994;8.820;2023-02-20T08:26:27;4.60;99.90
7384;DHT22;3733;47.994;8.820;2023-02-20T08:28:53;4.70;99.90
7384;DHT22;3733;47.994;8.820;2023-02-20T08:31:19;4.80;99.90
7384;DHT22;3733;47.994;8.820;2023-02-20T08:33:45;4.90;99.90
7384;DHT22;3733;47.994;8.820;2023-02-20T08:36:11;5.00;99.90
7384;DHT22;3733;47.994;8.820;2023-02-20T08:38:37;5.10;98.80
7384;DHT22;3733;47.994;8.820;2023-02-20T08:41:10;5.20;98.50
7384;DHT22;3733;47.994;8.820;2023-02-20T08:43:37;5.30;98.30
7384;DHT22;3733;47.994;8.820;2023-02-20T08:46:04;5.40;97.20
7384;DHT22;3733;47.994;8.820;2023-02-20T08:48:30;5.50;96.80
7384;DHT22;3733;47.994;8.820;2023-02-20T08:50:56;5.60;95.50
7384;DHT22;3733;47.994;8.820;2023-02-20T08:53:21;5.70;93.70
7384;DHT22;3733;47.994;8.820;2023-02-20T08:55:47;5.80;92.80
7384;DHT22;3733;47.994;8.820;2023-02-20T08:58:13;5.90;92.20
7384;DHT22;3733;47.994;8.820;2023-02-20T09:00:38;6.00;90.90
7384;DHT22;3733;47.994;8.820;2023-02-20T09:03:04;6.10;90.00
7384;DHT22;3733;47.994;8.820;2023-02-20T09:05:33;6.20;88.70
7384;DHT22;3733;47.994;8.820;2023-02-20T09:08:00;6.30;87.30
7384;DHT22;3733;47.994;8.820;2023-02-20T09:10:26;6.40;84.80
7384;DHT22;3733;47.994;8.820;2023-02-20T09:12:52;6.60;82.80
7384;DHT22;3733;47.994;8.820;2023-02-20T09:15:17;6.60;80.50
7384;DHT22;3733;47.994;8.820;2023-02-20T09:17:52;6.80;78.60
7384;DHT22;3733;47.994;8.820;2023-02-20T09:20:19;6.90;76.30
7384;DHT22;3733;47.994;8.820;2023-02-20T09:22:49;7.00;74.50
7384;DHT22;3733;47.994;8.820;2023-02-20T09:25:15;7.10;72.30
7384;DHT22;3733;47.994;8.820;2023-02-20T09:27:41;7.30;71.60
7384;DHT22;3733;47.994;8.820;2023-02-20T09:30:07;7.40;70.70
7384;DHT22;3733;47.994;8.820;2023-02-20T09:32:33;7.50;70.00
7384;DHT22;3733;47.994;8.820;2023-02-20T09:34:59;7.60;69.60
7384;DHT22;3733;47.994;8.820;2023-02-20T09:37:24;7.70;69.00
7384;DHT22;3733;47.994;8.820;2023-02-20T09:39:50;7.80;68.50
7384;DHT22;3733;47.994;8.820;2023-02-20T09:45:09;8.10;67.10
7384;DHT22;3733;47.994;8.820;2023-02-20T09:50:16;8.30;66.10
7384;DHT22;3733;47.994;8.820;2023-02-20T09:52:45;8.50;66.10
7384;DHT22;3733;47.994;8.820;2023-02-20T09:55:19;8.70;65.20
7384;DHT22;3733;47.994;8.820;2023-02-20T09:57:48;8.80;64.30
7384;DHT22;3733;47.994;8.820;2023-02-20T10:00:26;8.90;64.00
7384;DHT22;3733;47.994;8.820;2023-02-20T10:03:03;9.10;64.10
7384;DHT22;3733;47.994;8.820;2023-02-20T10:05:32;9.30;63.90
7384;DHT22;3733;47.994;8.820;2023-02-20T10:07:58;9.50;63.00
7384;DHT22;3733;47.994;8.820;2023-02-20T10:10:27;9.60;62.50
7384;DHT22;3733;47.994;8.820;2023-02-20T10:19:01;10.20;59.50
7384;DHT22;3733;47.994;8.820;2023-02-20T10:29:55;10.60;58.30
7384;DHT22;3733;47.994;8.820;2023-02-20T10:32:31;10.70;58.00
7384;DHT22;3733;47.994;8.820;2023-02-20T10:35:10;10.80;57.40
7384;DHT22;3733;47.994;8.820;2023-02-20T10:37:41;10.90;56.70
7384;DHT22;3733;47.994;8.820;2023-02-20T10:40:13;11.00;56.30
7384;DHT22;3733;47.994;8.820;2023-02-20T10:42:51;11.10;55.90
7384;DHT22;3733;47.994;8.820;2023-02-20T10:48:12;11.20;56.00
7384;DHT22;3733;47.994;8.820;2023-02-20T10:51:04;11.20;55.10
7384;DHT22;3733;47.994;8.820;2023-02-20T10:54:00;11.40;55.50
7384;DHT22;3733;47.994;8.820;2023-02-20T11:01:36;11.90;54.30
7384;DHT22;3733;47.994;8.820;2023-02-20T11:04:11;12.10;53.80
7384;DHT22;3733;47.994;8.820;2023-02-20T11:06:44;12.20;52.80
7384;DHT22;3733;47.994;8.820;2023-02-20T11:09:10;12.30;52.30
7384;DHT22;3733;47.994;8.820;2023-02-20T11:11:38;12.40;51.60
7384;DHT22;3733;47.994;8.820;2023-02-20T11:17:09;12.60;50.80
7384;DHT22;3733;47.994;8.820;2023-02-20T11:19:51;12.80;50.50
7384;DHT22;3733;47.994;8.820;2023-02-20T11:22:47;12.90;50.00
7384;DHT22;3733;47.994;8.820;2023-02-20T11:25:27;13.20;50.60
7384;DHT22;3733;47.994;8.820;2023-02-20T11:27:59;13.40;49.40
7384;DHT22;3733;47.994;8.820;2023-02-20T11:30:35;13.60;48.00
7384;DHT22;3733;47.994;8.820;2023-02-20T11:33:14;13.70;47.90
7384;DHT22;3733;47.994;8.820;2023-02-20T11:35:41;13.80;48.10
7384;DHT22;3733;47.994;8.820;2023-02-20T11:43:31;14.40;49.10
7384;DHT22;3733;47.994;8.820;2023-02-20T11:51:38;15.20;48.50
7384;DHT22;3733;47.994;8.820;2023-02-20T11:54:15;15.60;48.60
7384;DHT22;3733;47.994;8.820;2023-02-20T11:57:05;16.00;48.00
7384;DHT22;3733;47.994;8.820;2023-02-20T11:59:43;16.40;47.20
7384;DHT22;3733;47.994;8.820;2023-02-20T12:10:19;18.10;44.30
7384;DHT22;3733;47.994;8.820;2023-02-20T12:12:46;18.50;44.10
7384;DHT22;3733;47.994;8.820;2023-02-20T12:15:19;18.80;43.40
7384;DHT22;3733;47.994;8.820;2023-02-20T12:20:27;19.40;41.90
7384;DHT22;3733;47.994;8.820;2023-02-20T12:47:59;22.80;35.20
7384;DHT22;3733;47.994;8.820;2023-02-20T12:56:06;23.20;33.80
7384;DHT22;3733;47.994;8.820;2023-02-20T13:01:23;23.50;33.40
7384;DHT22;3733;47.994;8.820;2023-02-20T13:06:35;24.00;32.20
7384;DHT22;3733;47.994;8.820;2023-02-20T13:11:33;24.20;32.20
7384;DHT22;3733;47.994;8.820;2023-02-20T13:17:02;24.00;32.70
7384;DHT22;3733;47.994;8.820;2023-02-20T13:22:02;24.10;32.30
7384;DHT22;3733;47.994;8.820;2023-02-20T13:24:31;23.70;31.80
7384;DHT22;3733;47.994;8.820;2023-02-20T13:27:00;23.20;32.30
7384;DHT22;3733;47.994;8.820;2023-02-20T13:29:35;22.90;31.50
7384;DHT22;3733;47.994;8.820;2023-02-20T13:32:25;22.60;31.80
7384;DHT22;3733;47.994;8.820;2023-02-20T13:34:53;22.30;32.20
7384;DHT22;3733;47.994;8.820;2023-02-20T13:41:05;21.80;33.00
7384;DHT22;3733;47.994;8.820;2023-02-20T13:56:23;21.00;37.30
7384;DHT22;3733;47.994;8.820;2023-02-20T13:58:50;21.00;37.60
7384;DHT22;3733;47.994;8.820;2023-02-20T14:01:16;21.00;37.20
7384;DHT22;3733;47.994;8.820;2023-02-20T14:03:42;20.90;36.90
7384;DHT22;3733;47.994;8.820;2023-02-20T14:06:17;20.80;36.40
7384;DHT22;3733;47.994;8.820;2023-02-20T14:08:45;20.70;36.30
7384;DHT22;3733;47.994;8.820;2023-02-20T14:11:15;20.60;36.20
7384;DHT22;3733;47.994;8.820;2023-02-20T14:13:49;20.50;36.00
7384;DHT22;3733;47.994;8.820;2023-02-20T14:16:36;20.50;36.60
7384;DHT22;3733;47.994;8.820;2023-02-20T14:19:24;20.50;35.90
7384;DHT22;3733;47.994;8.820;2023-02-20T14:21:51;20.50;35.80
7384;DHT22;3733;47.994;8.820;2023-02-20T14:24:24;20.40;36.70
7384;DHT22;3733;47.994;8.820;2023-02-20T14:26:50;20.50;34.50
7384;DHT22;3733;47.994;8.820;2023-02-20T14:31:54;20.70;34.20
7384;DHT22;3733;47.994;8.820;2023-02-20T14:34:35;20.80;33.10
7384;DHT22;3733;47.994;8.820;2023-02-20T14:40:12;21.10;34.80
7384;DHT22;3733;47.994;8.820;2023-02-20T14:42:43;21.40;34.90
7384;DHT22;3733;47.994;8.820;2023-02-20T14:45:18;21.70;31.40
7384;DHT22;3733;47.994;8.820;2023-02-20T14:47:55;21.90;29.60
7384;DHT22;3733;47.994;8.820;2023-02-20T14:50:33;22.10;29.60
7384;DHT22;3733;47.994;8.820;2023-02-20T14:53:10;22.30;29.50
7384;DHT22;3733;47.994;8.820;2023-02-20T14:55:36;22.60;29.80
7384;DHT22;3733;47.994;8.820;2023-02-20T14:58:12;22.70;29.50
7384;DHT22;3733;47.994;8.820;2023-02-20T15:00:39;22.80;29.60
7384;DHT22;3733;47.994;8.820;2023-02-20T15:03:17;23.20;29.70
7384;DHT22;3733;47.994;8.820;2023-02-20T15:05:43;23.50;29.30
7384;DHT22;3733;47.994;8.820;2023-02-20T15:10:53;24.20;27.40
7384;DHT22;3733;47.994;8.820;2023-02-20T15:13:25;24.10;27.70
7384;DHT22;3733;47.994;8.820;2023-02-20T15:16:02;23.20;27.60
7384;DHT22;3733;47.994;8.820;2023-02-20T15:18:34;21.80;28.30
7384;DHT22;3733;47.994;8.820;2023-02-20T15:21:00;20.40;29.50
7384;DHT22;3733;47.994;8.820;2023-02-20T15:23:31;19.30;30.30
7384;DHT22;3733;47.994;8.820;2023-02-20T15:25:58;18.50;31.50
7384;DHT22;3733;47.994;8.820;2023-02-20T15:28:28;17.90;32.00
7384;DHT22;3733;47.994;8.820;2023-02-20T15:31:22;17.40;32.40
7384;DHT22;3733;47.994;8.820;2023-02-20T15:33:53;17.00;32.90
7384;DHT22;3733;47.994;8.820;2023-02-20T15:36:22;16.70;35.20
7384;DHT22;3733;47.994;8.820;2023-02-20T15:38:54;16.50;38.40
7384;DHT22;3733;47.994;8.820;2023-02-20T15:41:20;16.40;40.30
7384;DHT22;3733;47.994;8.820;2023-02-20T15:43:49;17.10;41.60
7384;DHT22;3733;47.994;8.820;2023-02-20T15:46:16;19.20;40.10
7384;DHT22;3733;47.994;8.820;2023-02-20T15:48:41;21.60;37.40
7384;DHT22;3733;47.994;8.820;2023-02-20T15:51:09;23.70;34.90
7384;DHT22;3733;47.994;8.820;2023-02-20T15:53:35;25.40;32.70
7384;DHT22;3733;47.994;8.820;2023-02-20T15:56:01;26.80;31.20
7384;DHT22;3733;47.994;8.820;2023-02-20T15:58:32;27.20;30.00
7384;DHT22;3733;47.994;8.820;2023-02-20T16:00:59;26.10;30.10
7384;DHT22;3733;47.994;8.820;2023-02-20T16:03:27;24.40;32.00
7384;DHT22;3733;47.994;8.820;2023-02-20T16:05:53;22.60;34.00
7384;DHT22;3733;47.994;8.820;2023-02-20T16:08:20;20.90;36.40
7384;DHT22;3733;47.994;8.820;2023-02-20T16:10:46;19.50;39.10
7384;DHT22;3733;47.994;8.820;2023-02-20T16:13:38;18.40;40.60
7384;DHT22;3733;47.994;8.820;2023-02-20T16:16:20;17.40;42.30
7384;DHT22;3733;47.994;8.820;2023-02-20T16:18:46;16.60;44.00
7384;DHT22;3733;47.994;8.820;2023-02-20T16:21:13;16.00;45.20
7384;DHT22;3733;47.994;8.820;2023-02-20T16:23:39;15.50;46.30
7384;DHT22;3733;47.994;8.820;2023-02-20T16:26:07;15.10;47.20
7384;DHT22;3733;47.994;8.820;2023-02-20T16:28:34;14.80;47.90
7384;DHT22;3733;47.994;8.820;2023-02-20T16:31:00;14.50;48.50
7384;DHT22;3733;47.994;8.820;2023-02-20T16:33:26;14.30;49.10
7384;DHT22;3733;47.994;8.820;2023-02-20T16:35:51;14.10;49.60
7384;DHT22;3733;47.994;8.820;2023-02-20T16:38:18;13.90;49.90
7384;DHT22;3733;47.994;8.820;2023-02-20T16:40:44;13.80;50.50
7384;DHT22;3733;47.994;8.820;2023-02-20T16:43:13;13.60;50.90
7384;DHT22;3733;47.994;8.820;2023-02-20T16:45:39;13.50;51.30
7384;DHT22;3733;47.994;8.820;2023-02-20T16:48:12;13.40;51.50
7384;DHT22;3733;47.994;8.820;2023-02-20T16:50:39;13.40;51.80
7384;DHT22;3733;47.994;8.820;2023-02-20T16:53:05;13.30;52.10
7384;DHT22;3733;47.994;8.820;2023-02-20T16:55:31;13.20;52.20
7384;DHT22;3733;47.994;8.820;2023-02-20T16:57:58;13.10;52.00
7384;DHT22;3733;47.994;8.820;2023-02-20T17:00:32;13.00;51.90
7384;DHT22;3733;47.994;8.820;2023-02-20T17:02:59;12.80;52.10
7384;DHT22;3733;47.994;8.820;2023-02-20T17:05:30;12.70;52.30
7384;DHT22;3733;47.994;8.820;2023-02-20T17:07:57;12.60;52.10
7384;DHT22;3733;47.994;8.820;2023-02-20T17:10:24;12.50;51.60
7384;DHT22;3733;47.994;8.820;2023-02-20T17:12:50;12.30;51.50
7384;DHT22;3733;47.994;8.820;2023-02-20T17:15:18;12.20;51.90
7384;DHT22;3733;47.994;8.820;2023-02-20T17:17:44;12.00;52.40
7384;DHT22;3733;47.994;8.820;2023-02-20T17:20:18;11.80;52.70
7384;DHT22;3733;47.994;8.820;2023-02-20T17:22:46;11.60;53.00
7384;DHT22;3733;47.994;8.820;2023-02-20T17:25:17;11.50;53.20
7384;DHT22;3733;47.994;8.820;2023-02-20T17:27:43;11.30;53.40
7384;DHT22;3733;47.994;8.820;2023-02-20T17:30:09;11.10;53.70
7384;DHT22;3733;47.994;8.820;2023-02-20T17:32:35;11.00;54.20
7384;DHT22;3733;47.994;8.820;2023-02-20T17:35:00;10.80;54.60
7384;DHT22;3733;47.994;8.820;2023-02-20T17:37:26;10.70;54.80
7384;DHT22;3733;47.994;8.820;2023-02-20T17:39:56;10.60;54.70
7384;DHT22;3733;47.994;8.820;2023-02-20T17:42:21;10.50;54.40
7384;DHT22;3733;47.994;8.820;2023-02-20T17:44:47;10.40;54.30
7384;DHT22;3733;47.994;8.820;2023-02-20T17:47:14;10.30;53.80
7384;DHT22;3733;47.994;8.820;2023-02-20T17:49:40;10.10;53.70
7384;DHT22;3733;47.994;8.820;2023-02-20T17:52:05;10.00;53.80
7384;DHT22;3733;47.994;8.820;2023-02-20T17:54:31;9.90;54.80
7384;DHT22;3733;47.994;8.820;2023-02-20T17:56:57;9.80;54.70
7384;DHT22;3733;47.994;8.820;2023-02-20T17:59:23;9.70;54.60
7384;DHT22;3733;47.994;8.820;2023-02-20T18:01:49;9.60;54.40
7384;DHT22;3733;47.994;8.820;2023-02-20T18:04:15;9.50;54.60
7384;DHT22;3733;47.994;8.820;2023-02-20T18:06:42;9.40;54.20
7384;DHT22;3733;47.994;8.820;2023-02-20T18:09:08;9.30;54.20
7384;DHT22;3733;47.994;8.820;2023-02-20T18:11:35;9.20;54.40
7384;DHT22;3733;47.994;8.820;2023-02-20T18:14:00;9.20;54.80
7384;DHT22;3733;47.994;8.820;2023-02-20T18:16:27;9.10;55.10
7384;DHT22;3733;47.994;8.820;2023-02-20T18:18:53;9.00;55.00
7384;DHT22;3733;47.994;8.820;2023-02-20T18:21:25;8.90;54.80
7384;DHT22;3733;47.994;8.820;2023-02-20T18:23:51;8.80;54.80
7384;DHT22;3733;47.994;8.820;2023-02-20T18:26:17;8.80;54.80
7384;DHT22;3733;47.994;8.820;2023-02-20T18:28:43;8.70;55.00
7384;DHT22;3733;47.994;8.820;2023-02-20T18:31:09;8.60;55.10
7384;DHT22;3733;47.994;8.820;2023-02-20T18:33:36;8.50;55.20
7384;DHT22;3733;47.994;8.820;2023-02-20T18:36:02;8.40;55.40
7384;DHT22;3733;47.994;8.820;2023-02-20T18:38:28;8.20;55.30
7384;DHT22;3733;47.994;8.820;2023-02-20T18:40:53;8.20;55.50
7384;DHT22;3733;47.994;8.820;2023-02-20T18:43:19;8.20;56.60
7384;DHT22;3733;47.994;8.820;2023-02-20T18:45:44;8.20;56.70
7384;DHT22;3733;47.994;8.820;2023-02-20T18:48:10;8.20;56.90
7384;DHT22;3733;47.994;8.820;2023-02-20T18:50:36;8.20;57.10
7384;DHT22;3733;47.994;8.820;2023-02-20T18:53:01;8.10;57.20
7384;DHT22;3733;47.994;8.820;2023-02-20T18:55:27;8.00;57.20